Terminal Aerodrome Forecast
Issued by NWS

Current Version | Previous Version | Text Only | Print | Product List | Glossary Off
Versions: 1 2 3 4 5 6 7 8 9 10 11 12 13 14 15 16 17 18 19 20 21 22 23 24 25

000
FTUS41 KPBZ 261915 AAA
TAFHLG
TAF AMD
KHLG 261915Z 2619/2718 24010G18KT P6SM VCTS BKN035CB
      TEMPO 2619/2621 4SM TSRA OVC025CB
     FM262300 30009KT P6SM BKN050
     FM270900 VRB04KT P6SM BKN015
     FM271400 03006KT P6SM SCT060=

USA.gov is the U.S. government's official web portal to all federal, state and local government web resources and services.